Terminal Aerodrome Forecast
Issued by NWS Cleveland, OH

Home | Current Version | Previous Version | Text Only | Print | Product List | Glossary Off
Versions: 1 2 3 4 5 6 7 8 9 10 11 12 13 14 15 16 17 18 19 20 21 22 23 24 25

719
FTUS41 KCLE 111138
TAFERI
TAF
KERI 111138Z 1112/1212 30015G25KT 6SM -SHSN OVC035
      TEMPO 1114/1118 3SM -SHSN BKN025
     FM111800 29014G22KT P6SM -SHSN OVC035
     FM120000 28010KT P6SM BKN025 OVC080=

USA.gov is the U.S. government's official web portal to all federal, state and local government web resources and services.